createdAt,value
2018-12-16T00:02:14.861Z,35.00
2018-12-16T00:04:46.782Z,34.33
2018-12-16T00:07:11.728Z,34.33
2018-12-16T00:09:39.168Z,38.00
2018-12-16T00:12:06.634Z,36.23
2018-12-16T00:14:34.073Z,30.88
2018-12-16T00:17:01.521Z,30.63
2018-12-16T00:19:28.961Z,34.53
2018-12-16T00:21:56.397Z,28.27
2018-12-16T00:24:23.837Z,33.30
2018-12-16T00:26:51.280Z,29.27
2018-12-16T00:29:18.808Z,34.70
2018-12-16T00:31:46.244Z,24.57
2018-12-16T00:34:13.688Z,36.47
2018-12-16T00:36:41.124Z,30.50
2018-12-16T00:39:08.561Z,29.87
2018-12-16T00:41:36.001Z,28.67
2018-12-16T00:44:03.439Z,29.17
2018-12-16T00:46:30.881Z,31.93
2018-12-16T00:48:58.312Z,27.20
2018-12-16T00:51:25.761Z,29.00
2018-12-16T00:53:53.197Z,30.80
2018-12-16T00:56:20.641Z,31.68
2018-12-16T00:58:48.082Z,29.17
2018-12-16T01:01:15.528Z,28.95
2018-12-16T01:03:42.969Z,30.30
2018-12-16T01:06:10.517Z,26.90
2018-12-16T01:08:37.950Z,33.67
2018-12-16T01:11:05.392Z,29.97
2018-12-16T01:13:32.836Z,27.25
2018-12-16T01:16:00.276Z,23.80
2018-12-16T01:18:27.720Z,29.40
2018-12-16T01:20:55.153Z,26.43
2018-12-16T01:23:22.591Z,29.20
2018-12-16T01:25:50.029Z,26.47
2018-12-16T01:28:17.461Z,27.22
2018-12-16T01:30:44.898Z,23.17
2018-12-16T01:33:12.346Z,25.95
2018-12-16T01:35:39.787Z,26.77
2018-12-16T01:38:07.217Z,27.67
2018-12-16T01:40:34.673Z,26.77
2018-12-16T01:43:02.705Z,25.10
2018-12-16T01:45:30.139Z,27.82
2018-12-16T01:47:57.586Z,24.57
2018-12-16T01:50:25.043Z,23.93
2018-12-16T01:52:52.476Z,28.20
2018-12-16T01:55:19.917Z,28.87
2018-12-16T01:57:47.374Z,23.40
2018-12-16T02:00:14.808Z,25.57
2018-12-16T02:02:42.252Z,24.82
2018-12-16T02:05:09.688Z,25.77
2018-12-16T02:07:37.135Z,23.45
2018-12-16T02:10:04.568Z,25.60
2018-12-16T02:12:32.004Z,25.40
2018-12-16T02:14:59.445Z,28.53
2018-12-16T02:17:26.881Z,25.82
2018-12-16T02:19:54.317Z,28.33
2018-12-16T02:22:21.765Z,22.00
2018-12-16T02:24:49.205Z,22.57
2018-12-16T02:27:16.637Z,22.17
2018-12-16T02:29:44.073Z,27.50
2018-12-16T02:32:11.516Z,25.75
2018-12-16T02:34:39.005Z,24.90
2018-12-16T02:37:06.441Z,19.55
2018-12-16T02:39:33.877Z,21.40
2018-12-16T02:42:01.443Z,21.70
2018-12-16T02:44:28.883Z,22.22
2018-12-16T02:46:56.319Z,20.63
2018-12-16T02:49:23.810Z,24.30
2018-12-16T02:51:51.266Z,21.60
2018-12-16T02:54:18.729Z,23.07
2018-12-16T02:56:46.186Z,21.83
2018-12-16T02:59:13.648Z,23.07
2018-12-16T03:01:45.282Z,23.70
2018-12-16T03:04:12.708Z,27.57
2018-12-16T03:06:40.155Z,22.40
2018-12-16T03:09:07.681Z,23.07
2018-12-16T03:11:35.130Z,24.85
2018-12-16T03:14:02.569Z,23.00
2018-12-16T03:16:30.028Z,23.33
2018-12-16T03:18:57.477Z,26.90
2018-12-16T03:21:24.909Z,25.67
2018-12-16T03:23:52.356Z,25.92
2018-12-16T03:26:19.793Z,26.03
2018-12-16T03:28:47.304Z,25.25
2018-12-16T03:31:14.759Z,28.87
2018-12-16T03:33:42.282Z,26.40
2018-12-16T03:36:09.713Z,26.68
2018-12-16T03:38:37.163Z,27.00
2018-12-16T03:41:04.598Z,24.85
2018-12-16T03:43:32.032Z,28.27
2018-12-16T03:45:59.538Z,27.90
2018-12-16T03:48:26.977Z,26.07
2018-12-16T03:50:54.477Z,28.60
2018-12-16T03:53:21.927Z,26.40
2018-12-16T03:55:49.357Z,31.83
2018-12-16T03:58:16.806Z,31.85
2018-12-16T04:00:44.320Z,25.00
2018-12-16T04:03:11.778Z,33.25
2018-12-16T04:05:39.212Z,28.90
2018-12-16T04:08:06.671Z,28.90
2018-12-16T04:10:34.193Z,29.52
2018-12-16T04:13:01.649Z,27.13
2018-12-16T04:15:29.099Z,31.90
2018-12-16T04:17:56.536Z,27.20
2018-12-16T04:20:23.981Z,31.85
2018-12-16T04:22:51.423Z,31.47
2018-12-16T04:25:21.486Z,32.73
2018-12-16T04:27:48.922Z,31.73
2018-12-16T04:30:16.361Z,35.23
2018-12-16T04:32:43.796Z,32.00
2018-12-16T04:35:11.247Z,34.70
2018-12-16T04:37:38.718Z,33.97
2018-12-16T04:40:06.197Z,35.97
2018-12-16T04:42:33.637Z,33.87
2018-12-16T04:45:01.076Z,32.30
2018-12-16T04:47:28.526Z,35.30
2018-12-16T04:49:56.086Z,33.70
2018-12-16T04:52:23.528Z,35.80
2018-12-16T04:54:50.966Z,35.37
2018-12-16T04:57:18.410Z,32.17
2018-12-16T04:59:45.848Z,38.50
2018-12-16T05:02:13.291Z,34.93
2018-12-16T05:04:40.744Z,33.45
2018-12-16T05:07:08.198Z,39.40
2018-12-16T05:09:35.630Z,32.30
2018-12-16T05:12:03.070Z,40.63
2018-12-16T05:14:30.677Z,35.50
2018-12-16T05:16:58.117Z,36.08
2018-12-16T05:19:25.576Z,30.77
2018-12-16T05:21:53.081Z,30.12
2018-12-16T05:24:20.519Z,34.93
2018-12-16T05:26:47.949Z,29.63
2018-12-16T05:29:15.524Z,27.57
2018-12-16T05:31:42.960Z,31.83
2018-12-16T05:34:10.422Z,35.95
2018-12-16T05:36:37.867Z,32.83
2018-12-16T05:39:05.538Z,32.95
2018-12-16T05:41:32.984Z,31.63
2018-12-16T05:44:00.439Z,29.47
2018-12-16T05:46:27.880Z,27.50
2018-12-16T05:48:55.337Z,28.30
2018-12-16T05:51:22.788Z,26.87
2018-12-16T05:53:50.234Z,28.20
2018-12-16T05:56:17.688Z,29.30
2018-12-16T05:58:45.212Z,27.13
2018-12-16T06:01:12.665Z,27.73
2018-12-16T06:03:40.121Z,27.83
2018-12-16T06:06:08.233Z,24.67
2018-12-16T06:08:35.686Z,27.87
2018-12-16T06:11:03.118Z,26.45
2018-12-16T06:13:30.565Z,25.93
2018-12-16T06:15:58.009Z,23.07
2018-12-16T06:18:25.456Z,24.10
2018-12-16T06:20:52.988Z,23.52
2018-12-16T06:23:20.442Z,23.70
2018-12-16T06:25:47.888Z,20.83
2018-12-16T06:28:15.330Z,19.57
2018-12-16T06:30:43.021Z,23.40
2018-12-16T06:33:10.461Z,21.90
2018-12-16T06:35:37.905Z,21.00
2018-12-16T06:38:05.351Z,19.77
2018-12-16T06:40:32.800Z,20.87
2018-12-16T06:43:00.255Z,21.43
2018-12-16T06:45:27.696Z,21.73
2018-12-16T06:47:55.165Z,22.30
2018-12-16T06:50:22.616Z,22.02
2018-12-16T06:52:50.076Z,18.50
2018-12-16T06:55:17.520Z,17.65
2018-12-16T06:57:44.953Z,16.10
2018-12-16T07:00:12.829Z,18.10
2018-12-16T07:02:40.277Z,17.45
2018-12-16T07:05:07.724Z,18.13
2018-12-16T07:07:35.160Z,17.17
2018-12-16T07:10:02.604Z,20.57
2018-12-16T07:12:30.048Z,17.17
2018-12-16T07:14:57.523Z,16.70
2018-12-16T07:17:24.977Z,13.93
2018-12-16T07:19:52.504Z,14.00
2018-12-16T07:22:19.937Z,15.45
2018-12-16T07:24:47.395Z,16.43
2018-12-16T07:27:14.833Z,16.40
2018-12-16T07:29:42.287Z,15.30
2018-12-16T07:32:09.808Z,15.53
2018-12-16T07:34:37.258Z,16.23
2018-12-16T07:37:04.719Z,13.28
2018-12-16T07:39:32.162Z,13.63
2018-12-16T07:41:59.601Z,19.65
2018-12-16T07:44:27.067Z,14.83
2018-12-16T07:46:54.753Z,12.68
2018-12-16T07:49:22.213Z,13.97
2018-12-16T07:51:49.725Z,12.45
2018-12-16T07:54:17.340Z,14.63
2018-12-16T07:56:44.782Z,12.77
2018-12-16T07:59:12.228Z,12.27
2018-12-16T08:01:39.705Z,14.03
2018-12-16T08:04:07.295Z,13.68
2018-12-16T08:06:34.817Z,14.40
2018-12-16T08:09:02.284Z,15.58
2018-12-16T08:11:29.704Z,15.53
2018-12-16T08:13:57.160Z,13.28
2018-12-16T08:16:24.592Z,15.90
2018-12-16T08:18:52.040Z,12.78
2018-12-16T08:21:19.472Z,17.47
2018-12-16T08:23:46.921Z,16.20
2018-12-16T08:26:14.372Z,16.80
2018-12-16T08:28:41.837Z,13.53
2018-12-16T08:31:09.272Z,13.63
2018-12-16T08:33:36.724Z,12.78
2018-12-16T08:36:04.175Z,15.87
2018-12-16T08:38:31.635Z,15.72
2018-12-16T08:40:59.085Z,19.10
2018-12-16T08:43:26.531Z,13.78
2018-12-16T08:45:53.979Z,14.87
2018-12-16T08:48:21.420Z,14.43
2018-12-16T08:50:48.916Z,14.87
2018-12-16T08:53:16.361Z,18.25
2018-12-16T08:55:43.808Z,16.47
2018-12-16T08:58:11.244Z,15.38
2018-12-16T09:00:38.684Z,15.37
2018-12-16T09:03:08.072Z,18.45
2018-12-16T09:05:35.571Z,18.57
2018-12-16T09:08:03.048Z,14.87
2018-12-16T09:10:34.082Z,16.23
2018-12-16T09:12:59.885Z,16.67
2018-12-16T09:15:27.328Z,13.40
2018-12-16T09:17:54.761Z,18.63
2018-12-16T09:20:22.200Z,16.07
2018-12-16T09:22:49.636Z,16.30
2018-12-16T09:25:17.077Z,17.40
2018-12-16T09:27:44.516Z,16.63
2018-12-16T09:30:11.958Z,16.95
2018-12-16T09:32:39.393Z,17.73
2018-12-16T09:35:06.836Z,16.80
2018-12-16T09:37:34.275Z,19.10
2018-12-16T09:40:01.716Z,17.48
2018-12-16T09:42:29.163Z,16.77
2018-12-16T09:44:56.878Z,17.48
2018-12-16T09:47:24.548Z,15.23
2018-12-16T09:49:52.005Z,16.87
2018-12-16T09:52:19.542Z,15.15
2018-12-16T09:54:46.988Z,17.50
2018-12-16T09:57:14.525Z,14.13
2018-12-16T09:59:42.004Z,15.27
2018-12-16T10:02:09.445Z,16.03
2018-12-16T10:04:36.892Z,18.15
2018-12-16T10:07:04.332Z,18.70
2018-12-16T10:09:31.832Z,16.95
2018-12-16T10:11:59.269Z,17.77
2018-12-16T10:14:26.704Z,17.23
2018-12-16T10:16:54.148Z,19.40
2018-12-16T10:19:21.612Z,18.05
2018-12-16T10:21:49.056Z,17.33
2018-12-16T10:24:16.555Z,18.55
2018-12-16T10:26:44.041Z,18.67
2018-12-16T10:29:11.480Z,17.45
2018-12-16T10:31:38.921Z,16.53
2018-12-16T10:34:06.368Z,20.32
2018-12-16T10:36:33.840Z,21.47
2018-12-16T10:39:01.946Z,19.23
2018-12-16T10:41:29.582Z,21.83
2018-12-16T10:43:57.033Z,16.82
2018-12-16T10:46:24.486Z,19.57
2018-12-16T10:48:51.925Z,18.07
2018-12-16T10:51:19.375Z,19.17
2018-12-16T10:53:46.822Z,20.43
2018-12-16T10:56:14.261Z,16.27
2018-12-16T10:58:41.700Z,21.97
2018-12-16T11:01:14.725Z,20.43
2018-12-16T11:03:42.171Z,15.83
2018-12-16T11:06:10.709Z,17.02
2018-12-16T11:08:38.789Z,19.77
2018-12-16T11:11:06.241Z,16.53
2018-12-16T11:13:33.729Z,16.60
2018-12-16T11:16:01.173Z,17.57
2018-12-16T11:18:28.602Z,16.12
2018-12-16T11:20:56.044Z,19.23
2018-12-16T11:23:23.484Z,20.23
2018-12-16T11:25:50.928Z,18.80
2018-12-16T11:28:18.375Z,17.52
2018-12-16T11:30:45.811Z,17.47
2018-12-16T11:33:13.260Z,22.42
2018-12-16T11:35:40.692Z,19.33
2018-12-16T11:38:08.132Z,20.23
2018-12-16T11:40:35.576Z,19.10
2018-12-16T11:43:03.017Z,19.20
2018-12-16T11:45:30.457Z,20.43
2018-12-16T11:47:58.132Z,16.77
2018-12-16T11:50:25.568Z,17.27
2018-12-16T11:52:53.081Z,18.07
2018-12-16T11:55:20.527Z,18.83
2018-12-16T11:57:48.030Z,20.23
2018-12-16T12:00:15.480Z,18.87
2018-12-16T12:02:42.913Z,17.10
2018-12-16T12:05:10.348Z,19.37
2018-12-16T12:07:37.785Z,19.63
2018-12-16T12:10:05.216Z,18.60
2018-12-16T12:12:32.656Z,20.47
2018-12-16T12:15:00.109Z,21.93
2018-12-16T12:17:27.621Z,21.37
2018-12-16T12:19:55.056Z,21.45
2018-12-16T12:22:22.531Z,22.23
2018-12-16T12:24:49.968Z,18.57
2018-12-16T12:27:17.418Z,20.23
2018-12-16T12:29:44.865Z,22.27
2018-12-16T12:32:12.372Z,23.17
2018-12-16T12:34:39.811Z,22.75
2018-12-16T12:37:07.281Z,22.87
2018-12-16T12:39:34.717Z,19.85
2018-12-16T12:42:02.156Z,22.77
2018-12-16T12:44:29.606Z,18.17
2018-12-16T12:46:57.041Z,22.37
2018-12-16T12:49:24.499Z,19.27
2018-12-16T12:51:51.937Z,18.70
2018-12-16T12:54:19.373Z,21.35
2018-12-16T12:56:46.830Z,18.90
2018-12-16T12:59:14.272Z,20.92
2018-12-16T13:01:41.752Z,16.73
2018-12-16T13:04:09.188Z,18.50
2018-12-16T13:06:36.632Z,20.67
2018-12-16T13:09:04.186Z,23.57
2018-12-16T13:11:31.626Z,21.77
2018-12-16T13:13:59.082Z,20.77
2018-12-16T13:16:26.525Z,19.30
2018-12-16T13:18:53.969Z,18.87
2018-12-16T13:21:21.411Z,20.30
2018-12-16T13:23:48.853Z,20.90
2018-12-16T13:26:16.358Z,18.43
2018-12-16T13:28:43.798Z,19.95
2018-12-16T13:31:11.240Z,18.97
2018-12-16T13:33:38.700Z,21.02
2018-12-16T13:36:06.148Z,18.90
2018-12-16T13:38:33.594Z,19.98
2018-12-16T13:41:01.040Z,21.03
2018-12-16T13:43:28.485Z,24.55
2018-12-16T13:45:55.925Z,27.23
2018-12-16T13:48:23.444Z,25.80
2018-12-16T13:50:50.894Z,22.97
2018-12-16T13:53:18.337Z,20.35
2018-12-16T13:55:46.138Z,23.30
2018-12-16T13:58:13.688Z,17.70
2018-12-16T14:00:41.124Z,22.30
2018-12-16T14:03:09.629Z,21.70
2018-12-16T14:05:37.072Z,25.02
2018-12-16T14:08:04.524Z,24.50
2018-12-16T14:10:31.969Z,22.65
2018-12-16T14:12:59.415Z,23.73
2018-12-16T14:15:26.857Z,26.40
2018-12-16T14:17:54.317Z,19.47
2018-12-16T14:20:21.760Z,20.30
2018-12-16T14:22:49.300Z,21.03
2018-12-16T14:25:16.745Z,21.30
2018-12-16T14:27:44.195Z,25.03
2018-12-16T14:30:11.644Z,24.37
2018-12-16T14:32:39.179Z,21.80
2018-12-16T14:35:06.768Z,21.52
2018-12-16T14:37:34.216Z,25.13
2018-12-16T14:40:01.664Z,25.35
2018-12-16T14:42:29.111Z,23.50
2018-12-16T14:44:56.556Z,26.70
2018-12-16T14:47:24.018Z,29.03
2018-12-16T14:49:51.460Z,25.25
2018-12-16T14:52:18.913Z,23.77
2018-12-16T14:54:46.359Z,26.65
2018-12-16T14:57:13.800Z,24.27
2018-12-16T14:59:41.236Z,24.47
2018-12-16T15:02:08.690Z,23.30
2018-12-16T15:04:36.132Z,23.25
2018-12-16T15:07:03.584Z,27.73
2018-12-16T15:09:31.292Z,25.30
2018-12-16T15:11:58.752Z,24.80
2018-12-16T15:14:26.191Z,29.47
2018-12-16T15:16:53.665Z,22.10
2018-12-16T15:19:21.104Z,27.50
2018-12-16T15:21:48.561Z,28.07
2018-12-16T15:24:16.009Z,20.80
2018-12-16T15:26:43.457Z,24.60
2018-12-16T15:29:10.897Z,23.83
2018-12-16T15:31:38.340Z,24.80
2018-12-16T15:34:05.794Z,24.40
2018-12-16T15:36:33.236Z,28.27
2018-12-16T15:39:00.746Z,26.40
2018-12-16T15:41:28.213Z,25.37
2018-12-16T15:43:55.744Z,24.43
2018-12-16T15:46:23.189Z,29.48
2018-12-16T15:48:50.721Z,28.87
2018-12-16T15:51:18.164Z,28.85
2018-12-16T15:53:45.963Z,24.67
2018-12-16T15:56:13.406Z,24.37
2018-12-16T15:58:40.896Z,27.23
2018-12-16T16:01:08.446Z,29.50
2018-12-16T16:03:35.884Z,26.62
2018-12-16T16:06:03.404Z,25.90
2018-12-16T16:08:30.993Z,29.95
2018-12-16T16:10:58.437Z,28.27
2018-12-16T16:13:25.965Z,27.58
2018-12-16T16:15:53.405Z,25.60
2018-12-16T16:18:20.949Z,25.57
2018-12-16T16:20:48.392Z,25.77
2018-12-16T16:23:15.842Z,29.23
2018-12-16T16:25:43.288Z,25.48
2018-12-16T16:28:10.765Z,25.53
2018-12-16T16:30:38.272Z,25.97
2018-12-16T16:33:05.768Z,29.40
2018-12-16T16:35:33.213Z,25.12
2018-12-16T16:38:01.114Z,25.23
2018-12-16T16:40:29.139Z,26.87
2018-12-16T16:42:56.607Z,26.63
2018-12-16T16:45:24.053Z,25.53
2018-12-16T16:47:51.504Z,27.93
2018-12-16T16:50:18.951Z,26.65
2018-12-16T16:52:46.400Z,28.83
2018-12-16T16:55:13.888Z,25.10
2018-12-16T16:57:41.341Z,26.93
2018-12-16T17:00:08.787Z,25.15
2018-12-16T17:02:36.240Z,27.07
2018-12-16T17:05:03.702Z,28.35
2018-12-16T17:07:31.152Z,31.17
2018-12-16T17:09:58.599Z,28.60
2018-12-16T17:12:26.129Z,25.70
2018-12-16T17:14:53.568Z,29.05
2018-12-16T17:17:21.006Z,24.10
2018-12-16T17:19:48.453Z,31.70
2018-12-16T17:22:16.149Z,27.80
2018-12-16T17:24:43.601Z,26.97
2018-12-16T17:27:11.050Z,28.20
2018-12-16T17:29:38.498Z,25.80
2018-12-16T17:32:05.937Z,24.35
2018-12-16T17:34:33.457Z,27.50
2018-12-16T17:37:00.968Z,30.35
2018-12-16T17:39:28.440Z,24.03
2018-12-16T17:41:55.872Z,26.97
2018-12-16T17:44:23.328Z,27.10
2018-12-16T17:46:51.277Z,27.00
2018-12-16T17:49:18.711Z,28.75
2018-12-16T17:51:46.549Z,28.27
2018-12-16T17:54:14.005Z,30.37
2018-12-16T17:56:41.809Z,27.00
2018-12-16T17:59:09.253Z,28.93
2018-12-16T18:01:36.740Z,30.43
2018-12-16T18:04:06.133Z,32.83
2018-12-16T18:06:33.630Z,25.13
2018-12-16T18:09:01.080Z,27.42
2018-12-16T18:11:28.513Z,30.60
2018-12-16T18:13:55.966Z,33.15
2018-12-16T18:16:23.412Z,25.63
2018-12-16T18:18:50.852Z,29.85
2018-12-16T18:21:18.289Z,26.90
2018-12-16T18:23:45.735Z,25.40
2018-12-16T18:26:13.167Z,27.77
2018-12-16T18:28:40.617Z,28.25
2018-12-16T18:31:08.048Z,28.60
2018-12-16T18:33:35.497Z,28.23
2018-12-16T18:36:02.933Z,27.57
2018-12-16T18:38:30.392Z,28.90
2018-12-16T18:40:57.824Z,28.80
2018-12-16T18:43:25.424Z,27.73
2018-12-16T18:45:52.862Z,25.73
2018-12-16T18:48:20.295Z,27.70
2018-12-16T18:50:47.740Z,24.27
2018-12-16T18:53:15.192Z,29.15
2018-12-16T18:55:42.628Z,30.37
2018-12-16T18:58:10.069Z,26.70
2018-12-16T19:00:37.534Z,27.37
2018-12-16T19:03:04.972Z,28.92
2018-12-16T19:05:32.412Z,24.90
2018-12-16T19:07:59.904Z,31.93
2018-12-16T19:10:27.353Z,29.83
2018-12-16T19:12:54.793Z,29.27
2018-12-16T19:15:22.398Z,29.27
2018-12-16T19:17:49.897Z,29.07
2018-12-16T19:20:17.331Z,31.33
2018-12-16T19:22:44.774Z,25.03
2018-12-16T19:25:12.209Z,26.70
2018-12-16T19:27:39.665Z,28.37
2018-12-16T19:30:07.108Z,29.12
2018-12-16T19:32:34.604Z,28.70
2018-12-16T19:35:02.071Z,27.45
2018-12-16T19:37:29.503Z,27.97
2018-12-16T19:39:56.941Z,30.77
2018-12-16T19:42:24.842Z,26.63
2018-12-16T19:44:52.283Z,29.77
2018-12-16T19:47:19.722Z,26.75
2018-12-16T19:49:47.180Z,30.00
2018-12-16T19:52:14.651Z,27.42
2018-12-16T19:54:42.424Z,25.63
2018-12-16T19:57:10.103Z,25.10
2018-12-16T19:59:37.544Z,30.52
2018-12-16T20:02:05.008Z,27.80
2018-12-16T20:04:37.896Z,27.10
2018-12-16T20:07:05.389Z,31.70
2018-12-16T20:09:32.824Z,28.10
2018-12-16T20:12:00.276Z,27.60
2018-12-16T20:14:27.713Z,25.97
2018-12-16T20:16:55.148Z,26.83
2018-12-16T20:19:22.583Z,30.00
2018-12-16T20:21:50.027Z,31.67
2018-12-16T20:24:17.581Z,31.97
2018-12-16T20:26:45.035Z,33.83
2018-12-16T20:29:12.557Z,32.50
2018-12-16T20:31:39.999Z,27.17
2018-12-16T20:34:07.548Z,32.00
2018-12-16T20:36:35.059Z,27.63
2018-12-16T20:39:02.549Z,28.27
2018-12-16T20:41:30.001Z,28.98
2018-12-16T20:43:57.437Z,26.73
2018-12-16T20:46:24.877Z,32.10
2018-12-16T20:48:52.323Z,24.30
2018-12-16T20:51:19.768Z,26.37
2018-12-16T20:53:47.205Z,32.73
2018-12-16T20:56:14.649Z,32.40
2018-12-16T20:58:42.075Z,29.10
2018-12-16T21:01:09.521Z,27.95
2018-12-16T21:03:36.965Z,29.70
2018-12-16T21:06:04.408Z,27.37
2018-12-16T21:08:32.271Z,34.50
2018-12-16T21:11:03.904Z,34.83
2018-12-16T21:13:36.784Z,32.77
2018-12-16T21:16:09.545Z,33.37
2018-12-16T21:18:37.509Z,30.73
2018-12-16T21:21:05.039Z,31.43
2018-12-16T21:23:32.472Z,30.77
2018-12-16T21:25:59.921Z,30.60
2018-12-16T21:28:27.363Z,33.63
2018-12-16T21:30:54.798Z,31.80
2018-12-16T21:33:22.229Z,37.80
2018-12-16T21:35:49.714Z,31.10
2018-12-16T21:38:17.195Z,33.38
2018-12-16T21:40:44.638Z,37.00
2018-12-16T21:43:12.160Z,34.38
2018-12-16T22:00:15.997Z,33.60
2018-12-16T22:02:43.442Z,32.27
2018-12-16T22:05:12.428Z,33.50
2018-12-16T22:07:39.875Z,37.77
2018-12-16T22:10:07.312Z,33.85
2018-12-16T22:12:34.744Z,36.83
2018-12-16T22:15:02.196Z,31.35
2018-12-16T22:17:29.706Z,37.60
2018-12-16T22:19:57.136Z,51.60
2018-12-16T22:22:24.592Z,39.00
2018-12-16T22:24:52.028Z,44.75
2018-12-16T22:27:19.464Z,43.10
2018-12-16T22:29:46.910Z,35.28
2018-12-16T22:32:14.453Z,34.70
2018-12-16T22:34:41.893Z,41.23
2018-12-16T22:37:09.589Z,45.30
2018-12-16T22:39:37.032Z,45.30
2018-12-16T22:42:04.468Z,40.30
2018-12-16T22:44:31.916Z,39.05
2018-12-16T22:46:59.400Z,42.67
2018-12-16T22:49:26.839Z,32.97
2018-12-16T22:51:54.273Z,34.93
2018-12-16T22:54:21.719Z,31.00
2018-12-16T22:56:49.155Z,32.38
2018-12-16T22:59:16.585Z,31.37
2018-12-16T23:01:44.025Z,37.48
2018-12-16T23:04:11.524Z,37.70
2018-12-16T23:06:39.265Z,32.73
2018-12-16T23:09:06.709Z,34.10
2018-12-16T23:11:34.150Z,33.83
2018-12-16T23:14:01.589Z,36.20
2018-12-16T23:16:29.024Z,34.03
2018-12-16T23:18:56.464Z,32.03
2018-12-16T23:21:23.902Z,31.80
2018-12-16T23:23:51.388Z,36.13
2018-12-16T23:26:18.879Z,36.25
2018-12-16T23:28:46.308Z,32.97
2018-12-16T23:31:13.756Z,35.45
2018-12-16T23:33:41.188Z,32.17
2018-12-16T23:36:08.632Z,34.53
2018-12-16T23:38:36.068Z,34.90
2018-12-16T23:41:03.528Z,33.38
2018-12-16T23:43:30.968Z,32.53
2018-12-16T23:45:58.484Z,33.55
2018-12-16T23:48:25.929Z,34.97
2018-12-16T23:50:53.369Z,32.20
2018-12-16T23:53:20.802Z,31.83
2018-12-16T23:55:48.250Z,34.33
2018-12-16T23:58:15.772Z,38.50
